X  Close Metar Aviation Weather Data        CYYC Calgary International
Temperature
-8°C Temperature
-12°C Dewpoint
73% Humidity



Wind
9 KM/H
6 MPH
3 M/S
5 KTS



10°
N
Current Conditions

Cloudy with Light Snow Cloudy , Light Snow
Pressure 1032 (hPa) - 30.47 (inHg)
Visibility 7 (mile) - 11 (km)
Airport
Airport-code CYYC

Location: Calgary International
Distance: 4 (km)

Metar:
METAR CYYC 180500Z 01005KT 7SM -SN OVC022 M08/M12 A3026 RMK SC8 SLP317

Time: 17-10-2020 23:00 MST